createdAt,value
2019-03-28T00:02:10.573Z,99308.33
2019-03-28T00:04:40.939Z,99307.80
2019-03-28T00:07:13.136Z,99311.73
2019-03-28T00:09:43.654Z,99308.09
2019-03-28T00:12:13.024Z,99304.45
2019-03-28T00:14:43.433Z,99302.22
2019-03-28T00:17:15.705Z,99305.51
2019-03-28T00:19:45.066Z,99303.31
2019-03-28T00:22:18.295Z,99299.23
2019-03-28T00:25:02.447Z,99305.58
2019-03-28T00:27:32.900Z,99306.70
2019-03-28T00:30:03.273Z,99307.55
2019-03-28T00:32:35.957Z,99307.00
2019-03-28T00:35:06.956Z,99312.26
2019-03-28T00:37:36.430Z,99309.51
2019-03-28T00:40:10.556Z,99307.91
2019-03-28T00:42:40.936Z,99304.52
2019-03-28T00:45:11.796Z,99309.23
2019-03-28T00:47:41.189Z,99311.62
2019-03-28T00:50:12.211Z,99301.72
2019-03-28T00:52:42.794Z,99297.53
2019-03-28T00:55:13.208Z,99301.34
2019-03-28T00:57:42.604Z,99303.56
2019-03-28T01:00:14.290Z,99301.41
2019-03-28T01:02:46.108Z,99295.91
2019-03-28T01:05:17.136Z,99295.61
2019-03-28T01:07:48.993Z,99296.98
2019-03-28T01:10:19.435Z,99298.66
2019-03-28T01:12:51.887Z,99306.36
2019-03-28T01:15:22.298Z,99304.23
2019-03-28T01:17:52.720Z,99307.02
2019-03-28T01:20:22.172Z,99301.71
2019-03-28T01:22:51.569Z,99299.50
2019-03-28T01:25:20.996Z,99301.17
2019-03-28T01:27:51.340Z,99298.71
2019-03-28T01:30:20.978Z,99298.11
2019-03-28T01:32:51.370Z,99303.97
2019-03-28T01:35:21.891Z,99302.31
2019-03-28T01:37:52.721Z,99310.24
2019-03-28T01:40:24.454Z,99310.73
2019-03-28T01:42:56.855Z,99307.48
2019-03-28T01:45:26.282Z,99305.77
2019-03-28T01:47:56.641Z,99299.55
2019-03-28T01:50:27.032Z,99305.83
2019-03-28T01:52:57.376Z,99306.41
2019-03-28T01:55:26.701Z,99300.28
2019-03-28T01:57:57.736Z,99300.52
2019-03-28T02:00:29.828Z,99294.25
2019-03-28T02:03:03.552Z,99295.61
2019-03-28T02:05:34.036Z,99295.91
2019-03-28T02:08:03.465Z,99290.91
2019-03-28T02:10:32.892Z,99288.77
2019-03-28T02:13:05.169Z,99288.86
2019-03-28T02:15:34.545Z,99297.09
2019-03-28T02:18:03.937Z,99294.41
2019-03-28T02:20:34.402Z,99293.78
2019-03-28T02:23:04.818Z,99285.64
2019-03-28T02:25:35.213Z,99292.20
2019-03-28T02:28:05.608Z,99296.58
2019-03-28T02:30:37.964Z,99293.83
2019-03-28T02:33:08.208Z,99287.80
2019-03-28T02:35:38.544Z,99294.13
2019-03-28T02:38:09.485Z,99297.41
2019-03-28T02:40:39.047Z,99298.55
2019-03-28T02:43:08.404Z,99299.42
2019-03-28T02:45:37.879Z,99293.30
2019-03-28T02:48:08.237Z,99291.97
2019-03-28T02:50:38.636Z,99294.95
2019-03-28T02:53:09.176Z,99297.64
2019-03-28T02:55:38.519Z,99295.44
2019-03-28T02:58:07.926Z,99298.97
2019-03-28T03:00:37.388Z,99300.64
2019-03-28T03:03:07.898Z,99294.41
2019-03-28T03:05:37.420Z,99301.84
2019-03-28T03:08:08.114Z,99299.72
2019-03-28T03:10:38.762Z,99304.39
2019-03-28T03:13:09.329Z,99302.19
2019-03-28T03:15:38.746Z,99297.77
2019-03-28T03:18:09.072Z,99296.20
2019-03-28T03:20:41.040Z,99294.53
2019-03-28T03:23:11.999Z,99297.23
2019-03-28T03:25:42.444Z,99300.52
2019-03-28T03:28:14.834Z,99296.39
2019-03-28T03:30:45.258Z,99292.33
2019-03-28T03:33:14.610Z,99287.09
2019-03-28T03:35:44.968Z,99292.56
2019-03-28T03:38:18.651Z,99295.02
2019-03-28T03:40:48.154Z,99294.53
2019-03-28T03:43:18.622Z,99289.00
2019-03-28T03:45:49.185Z,99290.41
2019-03-28T03:48:19.664Z,99292.58
2019-03-28T03:50:50.122Z,99296.20
2019-03-28T03:53:19.650Z,99293.46
2019-03-28T03:55:48.117Z,99295.96
2019-03-28T03:58:18.624Z,99296.02
2019-03-28T04:00:50.244Z,99304.50
2019-03-28T04:03:20.738Z,99306.40
2019-03-28T04:05:51.094Z,99310.81
2019-03-28T04:08:21.422Z,99304.55
2019-03-28T04:10:50.860Z,99309.30
2019-03-28T04:13:21.134Z,99307.13
2019-03-28T04:15:50.817Z,99311.53
2019-03-28T04:18:22.249Z,99313.41
2019-03-28T04:20:54.194Z,99310.13
2019-03-28T04:23:24.628Z,99316.52
2019-03-28T04:25:55.323Z,99316.19
2019-03-28T04:28:31.830Z,99316.40
2019-03-28T04:30:56.817Z,99313.13
2019-03-28T04:33:27.358Z,99312.58
2019-03-28T04:35:56.822Z,99313.20
2019-03-28T04:38:26.224Z,99311.50
2019-03-28T04:40:58.682Z,99316.15
2019-03-28T04:43:28.104Z,99323.05
2019-03-28T04:45:57.633Z,99329.53
2019-03-28T04:48:28.033Z,99323.50
2019-03-28T04:50:58.421Z,99321.34
2019-03-28T04:53:29.590Z,99323.84
2019-03-28T04:55:58.972Z,99321.59
2019-03-28T04:58:29.534Z,99327.09
2019-03-28T05:00:59.462Z,99323.84
2019-03-28T05:03:33.478Z,99323.76
2019-03-28T05:06:03.999Z,99325.13
2019-03-28T05:08:34.712Z,99331.73
2019-03-28T05:11:05.243Z,99332.03
2019-03-28T05:13:34.591Z,99334.78
2019-03-28T05:16:04.831Z,99328.99
2019-03-28T05:18:36.653Z,99327.70
2019-03-28T05:21:06.338Z,99331.78
2019-03-28T05:23:35.830Z,99329.38
2019-03-28T05:26:06.294Z,99325.67
2019-03-28T05:28:35.758Z,99331.78
2019-03-28T05:31:05.139Z,99323.88
2019-03-28T05:33:34.606Z,99323.80
2019-03-28T05:36:06.096Z,99322.71
2019-03-28T05:38:36.460Z,99329.10
2019-03-28T05:41:05.841Z,99327.52
2019-03-28T05:43:36.528Z,99322.76
2019-03-28T05:46:06.932Z,99327.02
2019-03-28T05:48:37.329Z,99328.52
2019-03-28T05:51:09.719Z,99330.53
2019-03-28T05:53:39.126Z,99331.54
2019-03-28T05:56:09.592Z,99332.34
2019-03-28T05:58:43.443Z,99332.78
2019-03-28T06:01:12.842Z,99337.23
2019-03-28T06:03:43.209Z,99337.16
2019-03-28T06:06:13.711Z,99346.82
2019-03-28T06:08:43.124Z,99346.37
2019-03-28T06:11:13.517Z,99348.22
2019-03-28T06:13:43.936Z,99339.08
2019-03-28T06:16:14.989Z,99342.50
2019-03-28T06:18:46.334Z,99336.69
2019-03-28T06:21:15.735Z,99341.90
2019-03-28T06:23:47.150Z,99340.49
2019-03-28T06:26:16.553Z,99339.86
2019-03-28T06:28:45.947Z,99335.39
2019-03-28T06:31:16.238Z,99335.70
2019-03-28T06:33:45.692Z,99333.84
2019-03-28T06:36:16.078Z,99345.28
2019-03-28T06:38:46.493Z,99338.30
2019-03-28T06:41:16.900Z,99333.45
2019-03-28T06:43:47.296Z,99341.23
2019-03-28T06:46:16.804Z,99345.28
2019-03-28T06:48:47.155Z,99335.94
2019-03-28T06:51:16.540Z,99334.68
2019-03-28T06:53:48.508Z,99334.33
2019-03-28T06:56:18.020Z,99334.03
2019-03-28T06:58:48.509Z,99347.09
2019-03-28T07:01:17.887Z,99341.59
2019-03-28T07:03:50.027Z,99339.89
2019-03-28T07:06:21.361Z,99340.61
2019-03-28T07:08:51.292Z,99346.98
2019-03-28T07:11:20.650Z,99344.40
2019-03-28T07:13:50.641Z,99348.02
2019-03-28T07:16:22.311Z,99343.03
2019-03-28T07:18:51.660Z,99346.20
2019-03-28T07:21:23.125Z,99351.94
2019-03-28T07:23:53.391Z,99349.33
2019-03-28T07:26:22.775Z,99355.19
2019-03-28T07:28:54.361Z,99354.93
2019-03-28T07:31:23.994Z,99359.17
2019-03-28T07:33:54.482Z,99357.92
2019-03-28T07:36:23.877Z,99347.93
2019-03-28T07:38:54.337Z,99355.30
2019-03-28T07:41:25.228Z,99352.33
2019-03-28T07:43:55.625Z,99345.87
2019-03-28T07:46:26.076Z,99347.91
2019-03-28T07:48:56.491Z,99344.83
2019-03-28T07:51:30.334Z,99343.56
2019-03-28T07:53:59.703Z,99342.68
2019-03-28T07:56:30.113Z,99330.92
2019-03-28T07:59:01.906Z,99333.34
2019-03-28T08:01:32.601Z,99333.64
2019-03-28T08:04:02.967Z,99329.66
2019-03-28T08:06:33.402Z,99335.09
2019-03-28T08:09:03.795Z,99335.55
2019-03-28T08:11:34.318Z,99335.27
2019-03-28T08:14:04.709Z,99336.43
2019-03-28T08:16:34.189Z,99331.67
2019-03-28T08:19:03.584Z,99333.95
2019-03-28T08:21:34.068Z,99334.23
2019-03-28T08:24:04.368Z,99337.80
2019-03-28T08:26:36.741Z,99337.45
2019-03-28T08:29:06.355Z,99340.65
2019-03-28T08:31:40.578Z,99335.40
2019-03-28T08:34:08.649Z,99340.11
2019-03-28T08:36:39.984Z,99340.11
2019-03-28T08:39:10.342Z,99332.05
2019-03-28T08:41:39.745Z,99330.52
2019-03-28T08:44:10.735Z,99332.14
2019-03-28T08:46:41.262Z,99336.10
2019-03-28T08:49:11.597Z,99337.41
2019-03-28T08:51:41.905Z,99328.70
2019-03-28T08:54:11.319Z,99330.94
2019-03-28T08:56:41.685Z,99335.93
2019-03-28T08:59:11.125Z,99334.18
2019-03-28T09:01:43.361Z,99332.72
2019-03-28T09:04:14.995Z,99333.35
2019-03-28T09:06:45.230Z,99331.81
2019-03-28T09:09:15.728Z,99333.94
2019-03-28T09:11:47.133Z,99329.50
2019-03-28T09:14:17.599Z,99333.31
2019-03-28T09:16:48.002Z,99327.95
2019-03-28T09:19:20.377Z,99303.55
2019-03-28T09:21:49.757Z,99320.63
2019-03-28T09:24:19.217Z,99321.61
2019-03-28T09:26:51.591Z,99322.31
2019-03-28T09:29:22.578Z,99322.94
2019-03-28T09:31:55.120Z,99321.19
2019-03-28T09:34:25.524Z,99303.59
2019-03-28T09:36:55.886Z,99303.59
2019-03-28T09:39:26.444Z,99324.95
2019-03-28T09:41:58.188Z,99322.45
2019-03-28T09:44:28.558Z,99316.22
2019-03-28T09:46:58.917Z,99317.83
2019-03-28T09:49:29.536Z,99327.76
2019-03-28T09:51:59.941Z,99322.55
2019-03-28T09:54:30.219Z,99312.48
2019-03-28T09:57:00.594Z,99311.20
2019-03-28T09:59:31.046Z,99319.05
2019-03-28T10:02:01.407Z,99315.31
2019-03-28T10:04:32.301Z,99319.59
2019-03-28T10:07:03.716Z,99289.89
2019-03-28T10:09:34.389Z,99289.89
2019-03-28T10:12:03.843Z,99314.46
2019-03-28T10:14:34.210Z,99312.27
2019-03-28T10:17:03.621Z,99316.75
2019-03-28T10:19:34.029Z,99313.88
2019-03-28T10:22:04.383Z,99315.70
2019-03-28T10:24:33.899Z,99319.19
2019-03-28T10:27:04.257Z,99318.22
2019-03-28T10:29:33.088Z,99312.55
2019-03-28T10:32:02.570Z,99307.72
2019-03-28T10:34:33.203Z,99310.34
2019-03-28T10:37:02.654Z,99306.59
2019-03-28T10:39:33.041Z,99308.44
2019-03-28T10:42:05.430Z,99298.02
2019-03-28T10:44:39.334Z,99301.18
2019-03-28T10:47:07.892Z,99296.12
2019-03-28T10:49:36.421Z,99299.05
2019-03-28T10:52:04.972Z,99301.79
2019-03-28T10:54:34.551Z,99304.81
2019-03-28T10:57:13.065Z,99303.06
2019-03-28T10:59:35.149Z,99302.97
2019-03-28T11:02:04.970Z,99291.54
2019-03-28T11:04:37.132Z,99297.03
2019-03-28T11:07:06.667Z,99307.09
2019-03-28T11:09:39.158Z,99299.07
2019-03-28T11:12:08.520Z,99303.50
2019-03-28T11:14:40.295Z,99302.52
2019-03-28T11:17:09.687Z,99306.59
2019-03-28T11:19:42.035Z,99301.47
2019-03-28T11:22:11.403Z,99305.30
2019-03-28T11:24:41.768Z,99305.05
2019-03-28T11:27:12.113Z,99303.95
2019-03-28T11:29:41.608Z,99304.09
2019-03-28T11:32:11.963Z,99301.81
2019-03-28T11:34:41.504Z,99307.15
2019-03-28T11:37:25.345Z,99303.47
2019-03-28T11:39:47.994Z,99316.70
2019-03-28T11:42:17.365Z,99304.88
2019-03-28T11:44:46.866Z,99307.97
2019-03-28T11:47:16.305Z,99305.72
2019-03-28T11:49:46.691Z,99310.90
2019-03-28T11:52:16.178Z,99309.78
2019-03-28T11:54:47.763Z,99308.81
2019-03-28T11:57:20.104Z,99306.70
2019-03-28T11:59:48.995Z,99306.17
2019-03-28T12:02:20.109Z,99301.09
2019-03-28T12:04:48.915Z,99296.97
2019-03-28T12:07:19.353Z,99300.35
2019-03-28T12:09:51.275Z,99301.44
2019-03-28T12:12:21.711Z,99298.66
2019-03-28T12:14:52.016Z,99299.66
2019-03-28T12:17:21.459Z,99293.59
2019-03-28T12:19:50.873Z,99290.45
2019-03-28T12:22:20.317Z,99292.83
2019-03-28T12:24:50.698Z,99286.75
2019-03-28T12:27:23.193Z,99280.36
2019-03-28T12:29:55.068Z,99282.16
2019-03-28T12:32:25.466Z,99281.48
2019-03-28T12:34:55.990Z,99279.44
2019-03-28T12:37:27.374Z,99280.20
2019-03-28T12:39:59.981Z,99275.16
2019-03-28T12:42:29.897Z,99269.06
2019-03-28T12:44:59.066Z,99269.17
2019-03-28T12:47:41.672Z,99272.62
2019-03-28T12:50:01.837Z,99273.42
2019-03-28T12:52:31.294Z,99270.55
2019-03-28T12:55:02.782Z,99267.52
2019-03-28T12:57:36.313Z,99269.27
2019-03-28T13:00:14.416Z,99271.61
2019-03-28T13:02:45.085Z,99265.56
2019-03-28T13:05:14.673Z,99271.77
2019-03-28T13:07:44.942Z,99271.66
2019-03-28T13:10:15.865Z,99262.88
2019-03-28T13:12:45.229Z,99262.06
2019-03-28T13:15:18.563Z,99266.87
2019-03-28T13:17:50.939Z,99262.04
2019-03-28T13:20:22.349Z,99262.72
2019-03-28T13:22:56.038Z,99263.81
2019-03-28T13:25:26.451Z,99262.37
2019-03-28T13:27:56.813Z,99265.78
2019-03-28T13:30:26.356Z,99260.65
2019-03-28T13:32:55.715Z,99261.41
2019-03-28T13:35:26.061Z,99260.88
2019-03-28T13:37:56.489Z,99254.55
2019-03-28T13:40:26.279Z,99253.63
2019-03-28T13:42:56.877Z,99254.11
2019-03-28T13:45:26.388Z,99254.27
2019-03-28T13:47:56.512Z,99254.95
2019-03-28T13:50:26.231Z,99249.81
2019-03-28T13:52:57.905Z,99251.20
2019-03-28T13:55:28.385Z,99248.14
2019-03-28T13:57:59.098Z,99246.47
2019-03-28T14:00:34.007Z,99243.55
2019-03-28T14:03:04.463Z,99239.23
2019-03-28T14:05:33.778Z,99240.89
2019-03-28T14:08:03.247Z,99242.77
2019-03-28T14:10:35.212Z,99243.48
2019-03-28T14:13:05.711Z,99244.26
2019-03-28T14:15:36.073Z,99243.90
2019-03-28T14:18:06.604Z,99237.59
2019-03-28T14:20:37.040Z,99240.34
2019-03-28T14:23:09.108Z,99239.19
2019-03-28T14:25:38.621Z,99231.48
2019-03-28T14:28:07.142Z,99241.98
2019-03-28T14:30:35.628Z,99234.60
2019-03-28T14:33:11.641Z,99239.75
2019-03-28T14:35:39.408Z,99239.42
2019-03-28T14:38:09.887Z,99235.06
2019-03-28T14:40:40.283Z,99227.80
2019-03-28T14:43:10.853Z,99229.70
2019-03-28T14:45:41.302Z,99228.51
2019-03-28T14:48:11.701Z,99221.88
2019-03-28T14:50:41.374Z,99233.78
2019-03-28T14:53:15.969Z,99231.45
2019-03-28T14:55:46.678Z,99234.80
2019-03-28T14:58:17.187Z,99237.94
2019-03-28T15:00:51.774Z,99233.75
2019-03-28T15:03:27.275Z,99230.84
2019-03-28T15:05:58.600Z,99227.38
2019-03-28T15:08:28.128Z,99234.52
2019-03-28T15:10:58.736Z,99236.66
2019-03-28T15:13:28.237Z,99231.42
2019-03-28T15:15:58.746Z,99228.28
2019-03-28T15:18:31.192Z,99234.17
2019-03-28T15:21:01.552Z,99224.36
2019-03-28T15:23:32.009Z,99224.44
2019-03-28T15:26:02.358Z,99227.93
2019-03-28T15:28:34.275Z,99235.21
2019-03-28T15:31:04.678Z,99236.00
2019-03-28T15:33:39.691Z,99236.82
2019-03-28T15:36:06.565Z,99231.77
2019-03-28T15:38:39.855Z,99234.45
2019-03-28T15:41:10.223Z,99231.53
2019-03-28T15:43:42.230Z,99226.89
2019-03-28T15:46:11.839Z,99225.88
2019-03-28T15:48:45.201Z,99227.60
2019-03-28T15:51:16.909Z,99224.88
2019-03-28T15:53:49.629Z,99224.41
2019-03-28T15:56:19.132Z,99224.19
2019-03-28T15:58:49.480Z,99217.22
2019-03-28T16:01:18.964Z,99223.36
2019-03-28T16:03:53.281Z,99222.19
2019-03-28T16:06:22.503Z,99221.70
2019-03-28T16:08:54.861Z,99226.94
2019-03-28T16:11:25.278Z,99225.53
2019-03-28T16:13:57.658Z,99228.31
2019-03-28T16:16:28.369Z,99229.37
2019-03-28T16:18:57.854Z,99233.92
2019-03-28T16:21:28.252Z,99235.38
2019-03-28T16:23:58.705Z,99233.59
2019-03-28T16:26:29.007Z,99238.00
2019-03-28T16:29:00.589Z,99240.58
2019-03-28T16:31:30.988Z,99241.56
2019-03-28T16:34:07.301Z,99241.17
2019-03-28T16:36:36.571Z,99242.62
2019-03-28T16:39:07.021Z,99249.98
2019-03-28T16:41:38.866Z,99244.83
2019-03-28T16:44:11.306Z,99252.88
2019-03-28T16:46:43.587Z,99254.59
2019-03-28T16:49:14.430Z,99254.92
2019-03-28T16:51:46.904Z,99258.91
2019-03-28T16:54:18.321Z,99253.30
2019-03-28T16:56:48.787Z,99259.41
2019-03-28T16:59:20.175Z,99254.03
2019-03-28T17:01:50.624Z,99258.12
2019-03-28T17:04:22.939Z,99254.92
2019-03-28T17:06:54.925Z,99262.23
2019-03-28T17:09:25.386Z,99252.64
2019-03-28T17:11:54.894Z,99258.18
2019-03-28T17:14:26.266Z,99267.59
2019-03-28T17:16:57.266Z,99262.99
2019-03-28T17:19:26.709Z,99262.99
2019-03-28T17:21:58.384Z,99261.77
2019-03-28T17:24:28.112Z,99266.47
2019-03-28T17:26:58.672Z,99266.64
2019-03-28T17:29:28.107Z,99263.53
2019-03-28T17:31:58.625Z,99265.09
2019-03-28T17:34:34.704Z,99269.80
2019-03-28T17:37:00.532Z,99271.06
2019-03-28T17:39:30.962Z,99270.56
2019-03-28T17:42:01.518Z,99276.98
2019-03-28T17:44:31.010Z,99279.43
2019-03-28T17:47:01.464Z,99276.37
2019-03-28T17:49:30.827Z,99277.02
2019-03-28T17:52:01.769Z,99279.08
2019-03-28T17:54:33.490Z,99277.44
2019-03-28T17:57:02.925Z,99279.41
2019-03-28T17:59:32.285Z,99280.12
2019-03-28T18:02:01.809Z,99281.03
2019-03-28T18:04:32.642Z,99277.76
2019-03-28T18:07:01.866Z,99286.45
2019-03-28T18:09:32.238Z,99279.80
2019-03-28T18:12:02.872Z,99288.92
2019-03-28T18:14:33.632Z,99281.50
2019-03-28T18:17:03.041Z,99280.17
2019-03-28T18:19:33.497Z,99291.36
2019-03-28T18:22:04.082Z,99288.33
2019-03-28T18:24:33.702Z,99290.59
2019-03-28T18:27:03.088Z,99297.05
2019-03-28T18:29:35.912Z,99292.52
2019-03-28T18:32:05.630Z,99289.51
2019-03-28T18:34:35.033Z,99295.71
2019-03-28T18:37:07.391Z,99304.88
2019-03-28T18:39:37.790Z,99300.22
2019-03-28T18:42:07.305Z,99297.52
2019-03-28T18:44:36.837Z,99307.58
2019-03-28T18:47:07.238Z,99306.27
2019-03-28T18:49:36.707Z,99307.36
2019-03-28T18:52:07.590Z,99307.03
2019-03-28T18:54:36.991Z,99314.03
2019-03-28T18:57:06.607Z,99313.56
2019-03-28T18:59:39.047Z,99315.41
2019-03-28T19:02:11.436Z,99312.69
2019-03-28T19:04:40.836Z,99308.52
2019-03-28T19:07:11.206Z,99317.88
2019-03-28T19:09:40.683Z,99322.81
2019-03-28T19:12:11.023Z,99319.22
2019-03-28T19:14:46.054Z,99321.67
2019-03-28T19:17:15.451Z,99329.14
2019-03-28T19:19:45.951Z,99330.98
2019-03-28T19:22:16.457Z,99328.94
2019-03-28T19:24:46.877Z,99329.94
2019-03-28T19:27:18.051Z,99331.19
2019-03-28T19:29:52.374Z,99336.45
2019-03-28T19:32:22.930Z,99333.81
2019-03-28T19:34:53.869Z,99335.02
2019-03-28T19:37:24.959Z,99334.09
2019-03-28T19:39:56.399Z,99329.81
2019-03-28T19:42:26.803Z,99330.55
2019-03-28T19:44:59.721Z,99326.45
2019-03-28T19:47:30.453Z,99327.38
2019-03-28T19:50:01.586Z,99328.98
2019-03-28T19:52:30.987Z,99327.38
2019-03-28T19:55:00.452Z,99329.22
2019-03-28T19:57:31.018Z,99326.19
2019-03-28T20:00:04.040Z,99327.14
2019-03-28T20:02:35.209Z,99321.48
2019-03-28T20:05:04.764Z,99325.63
2019-03-28T20:07:34.145Z,99323.23
2019-03-28T20:10:16.325Z,99324.67
2019-03-28T20:12:45.247Z,99330.79
2019-03-28T20:15:16.185Z,99326.05
2019-03-28T20:17:47.934Z,99328.91
2019-03-28T20:20:21.598Z,99323.50
2019-03-28T20:22:51.981Z,99322.81
2019-03-28T20:25:21.368Z,99325.68
2019-03-28T20:27:54.785Z,99324.98
2019-03-28T20:30:25.548Z,99330.52
2019-03-28T20:32:57.896Z,99331.89
2019-03-28T20:35:28.279Z,99332.02
2019-03-28T20:37:58.828Z,99330.91
2019-03-28T20:40:31.201Z,99333.28
2019-03-28T20:43:00.951Z,99331.89
2019-03-28T20:45:31.422Z,99337.05
2019-03-28T20:48:03.250Z,99333.28
2019-03-28T20:50:33.750Z,99334.56
2019-03-28T20:53:04.375Z,99336.53
2019-03-28T20:55:34.741Z,99344.70
2019-03-28T20:58:05.236Z,99344.86
2019-03-28T21:00:40.627Z,99343.65
2019-03-28T21:03:10.986Z,99351.58
2019-03-28T21:05:41.834Z,99357.30
2019-03-28T21:08:12.147Z,99354.60
2019-03-28T21:10:41.546Z,99349.71
2019-03-28T21:13:11.910Z,99353.90
2019-03-28T21:15:42.427Z,99356.39
2019-03-28T21:18:11.818Z,99350.31
2019-03-28T21:20:42.188Z,99354.73
2019-03-28T21:23:12.260Z,99355.72
2019-03-28T21:25:43.516Z,99351.89
2019-03-28T21:28:15.527Z,99353.83
2019-03-28T21:30:48.038Z,99349.05
2019-03-28T21:33:19.020Z,99346.48
2019-03-28T21:35:48.379Z,99351.77
2019-03-28T21:38:18.761Z,99351.70
2019-03-28T21:40:49.198Z,99352.17
2019-03-28T21:43:19.589Z,99357.30
2019-03-28T21:45:49.764Z,99354.70
2019-03-28T21:48:21.063Z,99353.28
2019-03-28T21:50:50.492Z,99355.80
2019-03-28T21:53:21.000Z,99355.65
2019-03-28T21:55:55.384Z,99354.98
2019-03-28T21:58:24.140Z,99356.36
2019-03-28T22:00:53.688Z,99355.29
2019-03-28T22:03:26.488Z,99348.42
2019-03-28T22:05:57.068Z,99353.75
2019-03-28T22:08:30.956Z,99345.70
2019-03-28T22:11:00.435Z,99353.04
2019-03-28T22:13:30.797Z,99351.86
2019-03-28T22:16:01.361Z,99343.02
2019-03-28T22:18:32.281Z,99338.72
2019-03-28T22:21:02.645Z,99346.42
2019-03-28T22:23:33.107Z,99345.71
2019-03-28T22:26:02.441Z,99342.55
2019-03-28T22:28:32.844Z,99340.66
2019-03-28T22:31:02.200Z,99340.61
2019-03-28T22:33:32.594Z,99343.80
2019-03-28T22:36:02.014Z,99341.35
2019-03-28T22:38:32.359Z,99344.63
2019-03-28T22:41:04.086Z,99340.95
2019-03-28T22:43:34.438Z,99340.75
2019-03-28T22:46:04.819Z,99338.80
2019-03-28T22:48:35.262Z,99337.63
2019-03-28T22:51:05.693Z,99333.83
2019-03-28T22:53:36.624Z,99332.14
2019-03-28T22:56:07.025Z,99328.52
2019-03-28T22:58:36.580Z,99329.91
2019-03-28T23:01:07.075Z,99330.23
2019-03-28T23:03:36.473Z,99331.70
2019-03-28T23:06:06.948Z,99338.39
2019-03-28T23:08:38.886Z,99337.05
2019-03-28T23:11:08.286Z,99340.68
2019-03-28T23:13:38.794Z,99338.32
2019-03-28T23:16:09.234Z,99339.97
2019-03-28T23:18:39.833Z,99342.11
2019-03-28T23:21:10.483Z,99340.09
2019-03-28T23:23:40.822Z,99338.78
2019-03-28T23:26:11.236Z,99332.77
2019-03-28T23:28:41.584Z,99340.48
2019-03-28T23:31:11.951Z,99335.43
2019-03-28T23:33:41.356Z,99331.09
2019-03-28T23:36:11.809Z,99325.76
2019-03-28T23:38:42.132Z,99324.59
2019-03-28T23:41:12.516Z,99334.66
2019-03-28T23:43:42.964Z,99332.00
2019-03-28T23:46:12.332Z,99331.61
2019-03-28T23:48:42.639Z,99322.70
2019-03-28T23:51:13.007Z,99325.66
2019-03-28T23:53:42.399Z,99327.23
2019-03-28T23:56:12.875Z,99318.20
2019-03-28T23:58:41.632Z,99319.85
